sensor_id;sensor_type;location;lat;lon;timestamp;pressure;altitude;pressure_sealevel;temperature;humidity
26865;BME280;40618;51.166;10.322;2022-11-20T00:03:44;96978.84;;;-6.23;79.41
26865;BME280;40618;51.166;10.322;2022-11-20T00:06:13;96981.41;;;-6.21;79.29
26865;BME280;40618;51.166;10.322;2022-11-20T00:08:40;96978.84;;;-6.23;79.00
26865;BME280;40618;51.166;10.322;2022-11-20T00:11:10;96977.22;;;-6.19;79.13
26865;BME280;40618;51.166;10.322;2022-11-20T00:13:48;96979.72;;;-6.21;79.25
26865;BME280;40618;51.166;10.322;2022-11-20T00:16:19;96980.38;;;-6.28;79.00
26865;BME280;40618;51.166;10.322;2022-11-20T00:18:46;96979.44;;;-6.30;79.16
26865;BME280;40618;51.166;10.322;2022-11-20T00:21:17;96986.16;;;-6.31;78.78
26865;BME280;40618;51.166;10.322;2022-11-20T00:23:48;96991.22;;;-6.31;79.15
26865;BME280;40618;51.166;10.322;2022-11-20T00:26:16;96992.78;;;-6.34;79.17
26865;BME280;40618;51.166;10.322;2022-11-20T00:28:43;96988.66;;;-6.32;78.85
26865;BME280;40618;51.166;10.322;2022-11-20T00:31:14;96989.63;;;-6.27;79.04
26865;BME280;40618;51.166;10.322;2022-11-20T00:33:42;96990.53;;;-6.25;78.95
26865;BME280;40618;51.166;10.322;2022-11-20T00:36:20;96993.78;;;-6.29;79.28
26865;BME280;40618;51.166;10.322;2022-11-20T00:38:51;96992.06;;;-6.30;78.98
26865;BME280;40618;51.166;10.322;2022-11-20T00:41:21;96991.28;;;-6.27;79.18
26865;BME280;40618;51.166;10.322;2022-11-20T00:43:46;96982.84;;;-6.30;78.90
26865;BME280;40618;51.166;10.322;2022-11-20T00:46:18;96982.84;;;-6.30;78.90
26865;BME280;40618;51.166;10.322;2022-11-20T00:48:45;96981.09;;;-6.32;78.88
26865;BME280;40618;51.166;10.322;2022-11-20T00:51:13;96978.53;;;-6.34;78.84
26865;BME280;40618;51.166;10.322;2022-11-20T00:53:40;96976.78;;;-6.36;78.92
26865;BME280;40618;51.166;10.322;2022-11-20T00:56:07;96980.13;;;-6.36;78.97
26865;BME280;40618;51.166;10.322;2022-11-20T00:58:38;96981.84;;;-6.35;78.82
26865;BME280;40618;51.166;10.322;2022-11-20T01:03:40;96985.22;;;-6.34;78.93
26865;BME280;40618;51.166;10.322;2022-11-20T01:06:13;96984.38;;;-6.35;78.74
26865;BME280;40618;51.166;10.322;2022-11-20T01:08:41;96987.63;;;-6.39;78.60
26865;BME280;40618;51.166;10.322;2022-11-20T01:11:14;96984.97;;;-6.43;78.92
26865;BME280;40618;51.166;10.322;2022-11-20T01:13:45;96989.19;;;-6.42;79.02
26865;BME280;40618;51.166;10.322;2022-11-20T01:16:15;96989.28;;;-6.39;79.25
26865;BME280;40618;51.166;10.322;2022-11-20T01:18:45;96980.06;;;-6.39;78.74
26865;BME280;40618;51.166;10.322;2022-11-20T01:21:15;96983.41;;;-6.38;79.14
26865;BME280;40618;51.166;10.322;2022-11-20T01:23:49;96984.22;;;-6.41;78.75
26865;BME280;40618;51.166;10.322;2022-11-20T01:26:18;96987.44;;;-6.45;78.99
26865;BME280;40618;51.166;10.322;2022-11-20T01:28:46;96976.53;;;-6.44;78.86
26865;BME280;40618;51.166;10.322;2022-11-20T01:31:19;96968.94;;;-6.46;78.91
26865;BME280;40618;51.166;10.322;2022-11-20T01:33:48;96966.38;;;-6.47;79.20
26865;BME280;40618;51.166;10.322;2022-11-20T01:36:15;96963.03;;;-6.48;78.85
26865;BME280;40618;51.166;10.322;2022-11-20T01:38:42;96967.34;;;-6.43;78.98
26865;BME280;40618;51.166;10.322;2022-11-20T01:41:09;96958.16;;;-6.41;78.79
26865;BME280;40618;51.166;10.322;2022-11-20T01:43:58;96958.09;;;-6.43;79.00
26865;BME280;40618;51.166;10.322;2022-11-20T01:46:24;96963.94;;;-6.44;78.81
26865;BME280;40618;51.166;10.322;2022-11-20T01:49:07;96959.69;;;-6.47;78.87
26865;BME280;40618;51.166;10.322;2022-11-20T01:51:43;96953.53;;;-6.56;78.76
26865;BME280;40618;51.166;10.322;2022-11-20T01:54:18;96951.00;;;-6.56;78.96
26865;BME280;40618;51.166;10.322;2022-11-20T01:56:48;96946.91;;;-6.53;78.88
26865;BME280;40618;51.166;10.322;2022-11-20T01:59:19;96946.00;;;-6.55;78.60
26865;BME280;40618;51.166;10.322;2022-11-20T02:01:49;96940.13;;;-6.55;78.88
26865;BME280;40618;51.166;10.322;2022-11-20T02:04:15;96932.63;;;-6.54;78.85
26865;BME280;40618;51.166;10.322;2022-11-20T02:06:46;96930.97;;;-6.53;78.63
26865;BME280;40618;51.166;10.322;2022-11-20T02:09:16;96923.44;;;-6.52;78.78
26865;BME280;40618;51.166;10.322;2022-11-20T02:11:42;96930.13;;;-6.52;78.79
26865;BME280;40618;51.166;10.322;2022-11-20T02:14:08;96928.38;;;-6.55;78.65
26865;BME280;40618;51.166;10.322;2022-11-20T02:16:37;96926.53;;;-6.60;78.47
26865;BME280;40618;51.166;10.322;2022-11-20T02:24:27;96947.84;;;-6.78;78.59
26865;BME280;40618;51.166;10.322;2022-11-20T02:26:55;96945.94;;;-6.87;78.48
26865;BME280;40618;51.166;10.322;2022-11-20T02:29:33;96940.78;;;-6.91;78.40
26865;BME280;40618;51.166;10.322;2022-11-20T02:32:04;96938.97;;;-6.95;78.63
26865;BME280;40618;51.166;10.322;2022-11-20T02:34:31;96943.06;;;-6.99;78.30
26865;BME280;40618;51.166;10.322;2022-11-20T02:36:58;96945.56;;;-6.99;78.32
26865;BME280;40618;51.166;10.322;2022-11-20T02:39:26;96953.88;;;-7.02;78.39
26865;BME280;40618;51.166;10.322;2022-11-20T02:41:53;96947.16;;;-7.01;78.40
26865;BME280;40618;51.166;10.322;2022-11-20T02:44:21;96948.16;;;-6.96;78.66
26865;BME280;40618;51.166;10.322;2022-11-20T02:46:46;96936.53;;;-6.92;78.78
26865;BME280;40618;51.166;10.322;2022-11-20T02:49:12;96930.91;;;-6.84;78.73
26865;BME280;40618;51.166;10.322;2022-11-20T02:51:38;96934.47;;;-6.77;78.97
26865;BME280;40618;51.166;10.322;2022-11-20T02:54:03;96934.63;;;-6.72;78.93
26865;BME280;40618;51.166;10.322;2022-11-20T02:56:29;96942.28;;;-6.68;79.09
26865;BME280;40618;51.166;10.322;2022-11-20T02:58:55;96936.34;;;-6.70;79.24
26865;BME280;40618;51.166;10.322;2022-11-20T03:01:21;96938.28;;;-6.61;79.04
26865;BME280;40618;51.166;10.322;2022-11-20T03:03:47;96932.63;;;-6.54;78.98
26865;BME280;40618;51.166;10.322;2022-11-20T03:06:14;96930.28;;;-6.48;79.21
26865;BME280;40618;51.166;10.322;2022-11-20T03:08:41;96927.91;;;-6.41;79.41
26865;BME280;40618;51.166;10.322;2022-11-20T03:11:07;96923.88;;;-6.36;79.16
26865;BME280;40618;51.166;10.322;2022-11-20T03:13:34;96918.97;;;-6.30;79.34
26865;BME280;40618;51.166;10.322;2022-11-20T03:16:17;96909.13;;;-6.22;79.59
26865;BME280;40618;51.166;10.322;2022-11-20T03:18:45;96908.47;;;-6.15;79.55
26865;BME280;40618;51.166;10.322;2022-11-20T03:21:12;96896.03;;;-6.09;79.37
26865;BME280;40618;51.166;10.322;2022-11-20T03:23:40;96894.53;;;-6.02;79.79
26865;BME280;40618;51.166;10.322;2022-11-20T03:26:16;96889.59;;;-5.96;79.49
26865;BME280;40618;51.166;10.322;2022-11-20T03:28:49;96878.78;;;-5.92;79.65
26865;BME280;40618;51.166;10.322;2022-11-20T03:31:31;96881.50;;;-5.84;79.90
26865;BME280;40618;51.166;10.322;2022-11-20T03:34:03;96890.84;;;-5.80;79.60
26865;BME280;40618;51.166;10.322;2022-11-20T03:36:29;96890.03;;;-5.79;79.76
26865;BME280;40618;51.166;10.322;2022-11-20T03:38:56;96895.84;;;-5.82;79.75
26865;BME280;40618;51.166;10.322;2022-11-20T03:41:24;96895.91;;;-5.79;80.08
26865;BME280;40618;51.166;10.322;2022-11-20T03:43:59;96893.25;;;-5.85;79.77
26865;BME280;40618;51.166;10.322;2022-11-20T03:46:26;96895.69;;;-5.88;79.72
26865;BME280;40618;51.166;10.322;2022-11-20T03:48:53;96894.81;;;-5.90;80.18
26865;BME280;40618;51.166;10.322;2022-11-20T03:51:23;96893.22;;;-5.86;80.14
26865;BME280;40618;51.166;10.322;2022-11-20T03:53:52;96886.47;;;-5.87;80.41
26865;BME280;40618;51.166;10.322;2022-11-20T03:56:23;96891.47;;;-5.89;79.94
26865;BME280;40618;51.166;10.322;2022-11-20T03:58:53;96888.97;;;-5.89;79.97
26865;BME280;40618;51.166;10.322;2022-11-20T04:01:30;96883.22;;;-5.83;80.65
26865;BME280;40618;51.166;10.322;2022-11-20T04:03:57;96887.63;;;-5.74;80.37
26865;BME280;40618;51.166;10.322;2022-11-20T04:06:33;96874.25;;;-5.70;80.37
26865;BME280;40618;51.166;10.322;2022-11-20T04:09:00;96878.56;;;-5.66;80.74
26865;BME280;40618;51.166;10.322;2022-11-20T04:11:28;96871.13;;;-5.62;81.01
26865;BME280;40618;51.166;10.322;2022-11-20T04:13:58;96867.00;;;-5.58;80.78
26865;BME280;40618;51.166;10.322;2022-11-20T04:16:26;96871.25;;;-5.55;80.85
26865;BME280;40618;51.166;10.322;2022-11-20T04:18:56;96867.88;;;-5.57;80.45
26865;BME280;40618;51.166;10.322;2022-11-20T04:21:24;96867.00;;;-5.58;80.32
26865;BME280;40618;51.166;10.322;2022-11-20T04:23:51;96867.13;;;-5.53;80.61
26865;BME280;40618;51.166;10.322;2022-11-20T04:26:21;96868.03;;;-5.50;80.92
26865;BME280;40618;51.166;10.322;2022-11-20T04:28:48;96860.56;;;-5.45;80.94
26865;BME280;40618;51.166;10.322;2022-11-20T04:31:16;96864.75;;;-5.46;80.57
26865;BME280;40618;51.166;10.322;2022-11-20T04:33:44;96868.91;;;-5.48;80.53
26865;BME280;40618;51.166;10.322;2022-11-20T04:36:12;96866.41;;;-5.48;80.95
26865;BME280;40618;51.166;10.322;2022-11-20T04:38:41;96873.16;;;-5.47;81.00
26865;BME280;40618;51.166;10.322;2022-11-20T04:41:08;96866.41;;;-5.48;80.55
26865;BME280;40618;51.166;10.322;2022-11-20T04:43:39;96855.50;;;-5.47;80.67
26865;BME280;40618;51.166;10.322;2022-11-20T04:46:04;96858.09;;;-5.44;80.83
26865;BME280;40618;51.166;10.322;2022-11-20T04:48:30;96852.16;;;-5.44;80.95
26865;BME280;40618;51.166;10.322;2022-11-20T04:50:56;96857.22;;;-5.44;80.88
26865;BME280;40618;51.166;10.322;2022-11-20T04:53:23;96866.50;;;-5.43;80.80
26865;BME280;40618;51.166;10.322;2022-11-20T04:55:49;96863.94;;;-5.45;80.79
26865;BME280;40618;51.166;10.322;2022-11-20T04:58:16;96865.66;;;-5.44;81.05
26865;BME280;40618;51.166;10.322;2022-11-20T05:00:42;96863.94;;;-5.45;80.77
26865;BME280;40618;51.166;10.322;2022-11-20T05:03:08;96873.19;;;-5.45;81.34
26865;BME280;40618;51.166;10.322;2022-11-20T05:05:34;96875.75;;;-5.44;80.79
26865;BME280;40618;51.166;10.322;2022-11-20T05:08:00;96879.16;;;-5.41;80.76
26865;BME280;40618;51.166;10.322;2022-11-20T05:10:26;96873.28;;;-5.40;80.86
26865;BME280;40618;51.166;10.322;2022-11-20T05:12:52;96877.53;;;-5.39;81.12
26865;BME280;40618;51.166;10.322;2022-11-20T05:15:18;96883.41;;;-5.39;81.27
26865;BME280;40618;51.166;10.322;2022-11-20T05:17:48;96879.16;;;-5.41;80.74
26865;BME280;40618;51.166;10.322;2022-11-20T05:20:15;96881.78;;;-5.37;81.19
26865;BME280;40618;51.166;10.322;2022-11-20T05:22:40;96880.94;;;-5.36;80.94
26865;BME280;40618;51.166;10.322;2022-11-20T05:25:06;96880.16;;;-5.33;80.94
26865;BME280;40618;51.166;10.322;2022-11-20T05:27:32;96877.78;;;-5.29;81.17
26865;BME280;40618;51.166;10.322;2022-11-20T05:29:57;96864.28;;;-5.29;81.26
26865;BME280;40618;51.166;10.322;2022-11-20T05:32:23;96862.66;;;-5.27;80.98
26865;BME280;40618;51.166;10.322;2022-11-20T05:34:53;96860.19;;;-5.24;81.64
26865;BME280;40618;51.166;10.322;2022-11-20T05:37:18;96854.31;;;-5.24;81.07
26865;BME280;40618;51.166;10.322;2022-11-20T05:39:44;96861.13;;;-5.20;80.91
26865;BME280;40618;51.166;10.322;2022-11-20T05:42:09;96855.16;;;-5.24;80.97
26865;BME280;40618;51.166;10.322;2022-11-20T05:44:54;96850.09;;;-5.24;81.43
26865;BME280;40618;51.166;10.322;2022-11-20T05:47:19;96855.16;;;-5.24;81.52
26865;BME280;40618;51.166;10.322;2022-11-20T05:49:45;96844.28;;;-5.21;81.31
26865;BME280;40618;51.166;10.322;2022-11-20T05:52:11;96836.72;;;-5.20;81.53
26865;BME280;40618;51.166;10.322;2022-11-20T05:54:36;96831.72;;;-5.18;81.17
26865;BME280;40618;51.166;10.322;2022-11-20T05:57:02;96823.25;;;-5.20;81.22
26865;BME280;40618;51.166;10.322;2022-11-20T05:59:27;96826.66;;;-5.18;81.37
26865;BME280;40618;51.166;10.322;2022-11-20T06:01:53;96827.50;;;-5.19;81.30
26865;BME280;40618;51.166;10.322;2022-11-20T06:04:19;96832.59;;;-5.16;81.67
26865;BME280;40618;51.166;10.322;2022-11-20T06:06:44;96827.69;;;-5.10;81.69
26865;BME280;40618;51.166;10.322;2022-11-20T06:09:10;96826.91;;;-5.06;81.42
26865;BME280;40618;51.166;10.322;2022-11-20T06:11:35;96827.78;;;-5.05;81.74
26865;BME280;40618;51.166;10.322;2022-11-20T06:14:01;96837.88;;;-5.05;81.58
26865;BME280;40618;51.166;10.322;2022-11-20T06:16:26;96832.06;;;-5.03;81.43
26865;BME280;40618;51.166;10.322;2022-11-20T06:18:52;96832.94;;;-4.99;81.28
26865;BME280;40618;51.166;10.322;2022-11-20T06:21:20;96837.28;;;-4.94;81.83
26865;BME280;40618;51.166;10.322;2022-11-20T06:23:47;96847.50;;;-4.89;81.97
26865;BME280;40618;51.166;10.322;2022-11-20T06:26:16;96843.34;;;-4.85;81.93
26865;BME280;40618;51.166;10.322;2022-11-20T06:28:43;96849.31;;;-4.82;81.76
26865;BME280;40618;51.166;10.322;2022-11-20T06:31:11;96848.47;;;-4.82;82.05
26865;BME280;40618;51.166;10.322;2022-11-20T06:33:38;96848.47;;;-4.82;82.12
26865;BME280;40618;51.166;10.322;2022-11-20T06:36:04;96854.44;;;-4.77;81.88
26865;BME280;40618;51.166;10.322;2022-11-20T06:38:30;96849.50;;;-4.72;82.15
26865;BME280;40618;51.166;10.322;2022-11-20T06:40:56;96849.59;;;-4.68;81.81
26865;BME280;40618;51.166;10.322;2022-11-20T06:43:23;96849.69;;;-4.63;81.88
26865;BME280;40618;51.166;10.322;2022-11-20T06:45:54;96851.47;;;-4.59;82.27
26865;BME280;40618;51.166;10.322;2022-11-20T06:48:21;96840.56;;;-4.56;82.31
26865;BME280;40618;51.166;10.322;2022-11-20T06:50:48;96845.66;;;-4.53;82.22
26865;BME280;40618;51.166;10.322;2022-11-20T06:53:14;96847.41;;;-4.51;81.82
26865;BME280;40618;51.166;10.322;2022-11-20T06:55:44;96839.81;;;-4.51;82.10
26865;BME280;40618;51.166;10.322;2022-11-20T06:58:11;96839.81;;;-4.51;81.84
26865;BME280;40618;51.166;10.322;2022-11-20T07:00:37;96838.19;;;-4.47;82.35
26865;BME280;40618;51.166;10.322;2022-11-20T07:03:04;96841.66;;;-4.42;82.17
26865;BME280;40618;51.166;10.322;2022-11-20T07:05:31;96849.28;;;-4.39;81.98
26865;BME280;40618;51.166;10.322;2022-11-20T07:07:57;96853.50;;;-4.39;82.37
26865;BME280;40618;51.166;10.322;2022-11-20T07:10:23;96849.38;;;-4.36;82.25
26865;BME280;40618;51.166;10.322;2022-11-20T07:12:50;96852.75;;;-4.34;82.35
26865;BME280;40618;51.166;10.322;2022-11-20T07:15:21;96849.50;;;-4.28;82.32
26865;BME280;40618;51.166;10.322;2022-11-20T07:17:47;96842.00;;;-4.23;82.73
26865;BME280;40618;51.166;10.322;2022-11-20T07:20:14;96832.78;;;-4.20;82.62
26865;BME280;40618;51.166;10.322;2022-11-20T07:22:40;96832.00;;;-4.16;82.21
26865;BME280;40618;51.166;10.322;2022-11-20T07:25:07;96829.56;;;-4.13;82.24
26865;BME280;40618;51.166;10.322;2022-11-20T07:27:34;96821.16;;;-4.10;82.74
26865;BME280;40618;51.166;10.322;2022-11-20T07:29:59;96822.03;;;-4.08;82.57
26865;BME280;40618;51.166;10.322;2022-11-20T07:32:25;96822.88;;;-4.08;82.57
26865;BME280;40618;51.166;10.322;2022-11-20T07:34:51;96828.03;;;-4.04;82.63
26865;BME280;40618;51.166;10.322;2022-11-20T07:37:17;96813.72;;;-4.02;82.44
26865;BME280;40618;51.166;10.322;2022-11-20T07:39:42;96814.63;;;-3.99;82.24
26865;BME280;40618;51.166;10.322;2022-11-20T07:42:08;96816.31;;;-3.98;82.61
26865;BME280;40618;51.166;10.322;2022-11-20T07:44:35;96817.19;;;-3.96;82.40
26865;BME280;40618;51.166;10.322;2022-11-20T07:47:01;96818.91;;;-3.95;82.41
26865;BME280;40618;51.166;10.322;2022-11-20T07:49:27;96815.47;;;-3.97;82.89
26865;BME280;40618;51.166;10.322;2022-11-20T07:51:53;96815.47;;;-3.98;82.81
26865;BME280;40618;51.166;10.322;2022-11-20T07:54:21;96818.81;;;-3.99;82.34
26865;BME280;40618;51.166;10.322;2022-11-20T07:56:48;96827.28;;;-3.99;82.34
26865;BME280;40618;51.166;10.322;2022-11-20T07:59:14;96826.41;;;-3.98;82.56
26865;BME280;40618;51.166;10.322;2022-11-20T08:01:41;96825.63;;;-3.95;82.34
26865;BME280;40618;51.166;10.322;2022-11-20T08:04:08;96827.31;;;-3.96;82.99
26865;BME280;40618;51.166;10.322;2022-11-20T08:06:35;96823.94;;;-3.96;82.29
26865;BME280;40618;51.166;10.322;2022-11-20T08:09:01;96830.69;;;-3.95;82.57
26865;BME280;40618;51.166;10.322;2022-11-20T08:11:27;96833.19;;;-3.97;82.58
26865;BME280;40618;51.166;10.322;2022-11-20T08:14:11;96838.25;;;-3.95;82.94
26865;BME280;40618;51.166;10.322;2022-11-20T08:16:38;96838.25;;;-3.95;82.45
26865;BME280;40618;51.166;10.322;2022-11-20T08:19:04;96834.91;;;-3.94;82.62
26865;BME280;40618;51.166;10.322;2022-11-20T08:21:31;96838.25;;;-3.97;82.73
26865;BME280;40618;51.166;10.322;2022-11-20T08:23:57;96831.44;;;-3.99;83.07
26865;BME280;40618;51.166;10.322;2022-11-20T08:26:23;96831.44;;;-3.99;82.68
26865;BME280;40618;51.166;10.322;2022-11-20T08:28:53;96828.91;;;-4.01;82.89
26865;BME280;40618;51.166;10.322;2022-11-20T08:31:20;96828.09;;;-4.00;83.10
26865;BME280;40618;51.166;10.322;2022-11-20T08:33:46;96834.00;;;-3.98;82.76
26865;BME280;40618;51.166;10.322;2022-11-20T08:36:12;96833.22;;;-3.95;83.10
26865;BME280;40618;51.166;10.322;2022-11-20T08:38:38;96843.38;;;-3.94;83.05
26865;BME280;40618;51.166;10.322;2022-11-20T08:41:05;96844.22;;;-3.93;83.06
26865;BME280;40618;51.166;10.322;2022-11-20T08:43:52;96849.31;;;-3.90;83.08
26865;BME280;40618;51.166;10.322;2022-11-20T08:46:19;96844.34;;;-3.85;83.22
26865;BME280;40618;51.166;10.322;2022-11-20T08:48:45;96846.13;;;-3.80;83.23
26865;BME280;40618;51.166;10.322;2022-11-20T08:51:11;96852.16;;;-3.73;83.44
26865;BME280;40618;51.166;10.322;2022-11-20T08:53:38;96856.44;;;-3.69;83.01
26865;BME280;40618;51.166;10.322;2022-11-20T08:56:05;96858.13;;;-3.66;83.25
26865;BME280;40618;51.166;10.322;2022-11-20T08:58:31;96848.09;;;-3.63;83.34
26865;BME280;40618;51.166;10.322;2022-11-20T09:00:56;96857.41;;;-3.61;83.06
26865;BME280;40618;51.166;10.322;2022-11-20T09:03:22;96854.03;;;-3.60;83.33
26865;BME280;40618;51.166;10.322;2022-11-20T09:05:48;96852.38;;;-3.59;82.86
26865;BME280;40618;51.166;10.322;2022-11-20T09:08:13;96850.69;;;-3.59;83.30
26865;BME280;40618;51.166;10.322;2022-11-20T09:10:39;96848.91;;;-3.64;83.04
26865;BME280;40618;51.166;10.322;2022-11-20T09:13:05;96850.53;;;-3.66;82.94
26865;BME280;40618;51.166;10.322;2022-11-20T09:15:31;96851.41;;;-3.67;82.84
26865;BME280;40618;51.166;10.322;2022-11-20T09:18:00;96849.69;;;-3.68;83.20
26865;BME280;40618;51.166;10.322;2022-11-20T09:20:28;96844.59;;;-3.71;82.75
26865;BME280;40618;51.166;10.322;2022-11-20T09:22:55;96846.22;;;-3.74;83.21
26865;BME280;40618;51.166;10.322;2022-11-20T09:25:21;96841.13;;;-3.75;83.20
26865;BME280;40618;51.166;10.322;2022-11-20T09:27:47;96836.00;;;-3.80;83.38
26865;BME280;40618;51.166;10.322;2022-11-20T09:30:14;96832.63;;;-3.79;83.30
26865;BME280;40618;51.166;10.322;2022-11-20T09:32:41;96841.97;;;-3.76;82.69
26865;BME280;40618;51.166;10.322;2022-11-20T09:35:08;96835.28;;;-3.72;82.66
26865;BME280;40618;51.166;10.322;2022-11-20T09:37:34;96839.56;;;-3.68;83.40
26865;BME280;40618;51.166;10.322;2022-11-20T09:39:59;96838.00;;;-3.60;83.27
26865;BME280;40618;51.166;10.322;2022-11-20T09:42:39;96842.25;;;-3.58;83.42
26865;BME280;40618;51.166;10.322;2022-11-20T09:45:21;96835.59;;;-3.52;83.24
26865;BME280;40618;51.166;10.322;2022-11-20T09:56:37;96833.13;;;-3.48;83.02
26865;BME280;40618;51.166;10.322;2022-11-20T09:59:10;96833.94;;;-3.49;82.95
26865;BME280;40618;51.166;10.322;2022-11-20T10:01:45;96843.25;;;-3.48;83.23
26865;BME280;40618;51.166;10.322;2022-11-20T10:04:19;96842.41;;;-3.48;83.28
26865;BME280;40618;51.166;10.322;2022-11-20T10:07:05;96837.34;;;-3.48;82.85
26865;BME280;40618;51.166;10.322;2022-11-20T10:09:54;96840.72;;;-3.48;83.14
26865;BME280;40618;51.166;10.322;2022-11-20T10:15:43;96832.91;;;-3.63;82.83
26865;BME280;40618;51.166;10.322;2022-11-20T10:18:21;96830.38;;;-3.63;83.24
26865;BME280;40618;51.166;10.322;2022-11-20T10:26:37;96840.56;;;-3.59;82.87
26865;BME280;40618;51.166;10.322;2022-11-20T10:29:13;96843.97;;;-3.58;82.92
26865;BME280;40618;51.166;10.322;2022-11-20T10:31:55;96838.03;;;-3.57;82.98
26865;BME280;40618;51.166;10.322;2022-11-20T10:37:27;96824.78;;;-3.41;83.57
26865;BME280;40618;51.166;10.322;2022-11-20T10:42:54;96825.69;;;-3.38;82.75
26865;BME280;40618;51.166;10.322;2022-11-20T10:47:56;96835.78;;;-3.40;82.61
26865;BME280;40618;51.166;10.322;2022-11-20T10:54:04;96832.34;;;-3.44;82.87
26865;BME280;40618;51.166;10.322;2022-11-20T10:56:46;96826.41;;;-3.46;82.77
26865;BME280;40618;51.166;10.322;2022-11-20T11:01:58;96803.59;;;-3.47;83.07
26865;BME280;40618;51.166;10.322;2022-11-20T11:04:37;96808.59;;;-3.52;83.37
26865;BME280;40618;51.166;10.322;2022-11-20T11:07:20;96800.16;;;-3.52;83.21
26865;BME280;40618;51.166;10.322;2022-11-20T11:12:46;96799.22;;;-3.59;82.54
26865;BME280;40618;51.166;10.322;2022-11-20T11:18:10;96785.75;;;-3.58;82.92
26865;BME280;40618;51.166;10.322;2022-11-20T11:20:36;96789.97;;;-3.57;82.74
26865;BME280;40618;51.166;10.322;2022-11-20T11:23:03;96786.56;;;-3.59;83.13
26865;BME280;40618;51.166;10.322;2022-11-20T11:25:32;96793.25;;;-3.63;82.68
26865;BME280;40618;51.166;10.322;2022-11-20T11:28:22;96790.69;;;-3.66;83.00
26865;BME280;40618;51.166;10.322;2022-11-20T11:30:49;96776.34;;;-3.65;82.88
26865;BME280;40618;51.166;10.322;2022-11-20T11:33:26;96772.22;;;-3.59;83.38
26865;BME280;40618;51.166;10.322;2022-11-20T11:35:56;96779.03;;;-3.54;82.95
26865;BME280;40618;51.166;10.322;2022-11-20T11:38:29;96776.53;;;-3.51;83.39
26865;BME280;40618;51.166;10.322;2022-11-20T11:41:01;96781.69;;;-3.47;83.02
26865;BME280;40618;51.166;10.322;2022-11-20T11:43:34;96779.19;;;-3.42;83.14
26865;BME280;40618;51.166;10.322;2022-11-20T11:59:57;96774.47;;;-3.17;82.85
26865;BME280;40618;51.166;10.322;2022-11-20T12:02:38;96772.03;;;-3.11;82.94
26865;BME280;40618;51.166;10.322;2022-11-20T12:08:15;96761.97;;;-3.05;83.08
26865;BME280;40618;51.166;10.322;2022-11-20T12:11:49;96757.78;;;-3.01;82.96
26865;BME280;40618;51.166;10.322;2022-11-20T12:14:41;96762.88;;;-2.98;83.36
26865;BME280;40618;51.166;10.322;2022-11-20T12:17:12;96765.47;;;-2.95;82.59
26865;BME280;40618;51.166;10.322;2022-11-20T12:19:39;96767.16;;;-2.94;83.07
26865;BME280;40618;51.166;10.322;2022-11-20T12:25:16;96758.78;;;-2.89;82.81
26865;BME280;40618;51.166;10.322;2022-11-20T12:31:14;96756.28;;;-2.85;82.60
26865;BME280;40618;51.166;10.322;2022-11-20T12:34:16;96753.81;;;-2.81;82.96
26865;BME280;40618;51.166;10.322;2022-11-20T12:36:59;96747.94;;;-2.77;82.93
26865;BME280;40618;51.166;10.322;2022-11-20T12:39:41;96757.25;;;-2.74;82.98
26865;BME280;40618;51.166;10.322;2022-11-20T12:45:53;96753.94;;;-2.68;82.94
26865;BME280;40618;51.166;10.322;2022-11-20T12:54:22;96744.72;;;-2.62;82.86
26865;BME280;40618;51.166;10.322;2022-11-20T13:00:11;96735.50;;;-2.53;82.63
26865;BME280;40618;51.166;10.322;2022-11-20T13:03:16;96736.41;;;-2.50;83.16
26865;BME280;40618;51.166;10.322;2022-11-20T13:05:55;96730.50;;;-2.47;83.05
26865;BME280;40618;51.166;10.322;2022-11-20T13:08:34;96731.38;;;-2.41;82.68
26865;BME280;40618;51.166;10.322;2022-11-20T13:11:24;96740.72;;;-2.36;82.74
26865;BME280;40618;51.166;10.322;2022-11-20T13:17:14;96743.31;;;-2.30;83.13
26865;BME280;40618;51.166;10.322;2022-11-20T13:20:05;96739.97;;;-2.26;83.06
26865;BME280;40618;51.166;10.322;2022-11-20T13:22:54;96742.53;;;-2.23;82.87
26865;BME280;40618;51.166;10.322;2022-11-20T13:25:28;96737.47;;;-2.22;82.72
26865;BME280;40618;51.166;10.322;2022-11-20T13:27:59;96736.66;;;-2.19;83.11
26865;BME280;40618;51.166;10.322;2022-11-20T13:30:55;96743.44;;;-2.15;82.74
26865;BME280;40618;51.166;10.322;2022-11-20T13:33:33;96746.00;;;-2.13;82.98
26865;BME280;40618;51.166;10.322;2022-11-20T13:36:24;96736.72;;;-2.11;82.84
26865;BME280;40618;51.166;10.322;2022-11-20T13:38:52;96741.81;;;-2.10;83.09
26865;BME280;40618;51.166;10.322;2022-11-20T13:46:45;96730.84;;;-2.07;82.96
26865;BME280;40618;51.166;10.322;2022-11-20T13:58:28;96726.56;;;-2.13;82.99
26865;BME280;40618;51.166;10.322;2022-11-20T14:01:24;96732.47;;;-2.17;82.89
26865;BME280;40618;51.166;10.322;2022-11-20T14:03:52;96726.50;;;-2.19;82.82
26865;BME280;40618;51.166;10.322;2022-11-20T14:06:32;96729.88;;;-2.22;82.73
26865;BME280;40618;51.166;10.322;2022-11-20T14:09:03;96725.59;;;-2.26;82.97
26865;BME280;40618;51.166;10.322;2022-11-20T14:11:30;96717.16;;;-2.25;83.31
26865;BME280;40618;51.166;10.322;2022-11-20T14:16:30;96723.13;;;-2.23;82.72
26865;BME280;40618;51.166;10.322;2022-11-20T14:19:22;96727.31;;;-2.23;83.07
26865;BME280;40618;51.166;10.322;2022-11-20T14:22:37;96718.03;;;-2.24;82.90
26865;BME280;40618;51.166;10.322;2022-11-20T14:24:44;96712.91;;;-2.26;82.77
26865;BME280;40618;51.166;10.322;2022-11-20T14:27:21;96710.38;;;-2.26;83.11
26865;BME280;40618;51.166;10.322;2022-11-20T14:29:49;96707.03;;;-2.25;83.16
26865;BME280;40618;51.166;10.322;2022-11-20T14:32:17;96706.19;;;-2.25;83.23
26865;BME280;40618;51.166;10.322;2022-11-20T14:34:47;96718.03;;;-2.24;83.20
26865;BME280;40618;51.166;10.322;2022-11-20T14:37:21;96707.00;;;-2.26;83.22
26865;BME280;40618;51.166;10.322;2022-11-20T14:39:52;96703.66;;;-2.25;83.11
26865;BME280;40618;51.166;10.322;2022-11-20T14:42:24;96703.66;;;-2.24;83.24
26865;BME280;40618;51.166;10.322;2022-11-20T14:44:53;96695.16;;;-2.26;83.10
26865;BME280;40618;51.166;10.322;2022-11-20T14:47:24;96704.47;;;-2.29;83.16
26865;BME280;40618;51.166;10.322;2022-11-20T14:49:52;96695.13;;;-2.32;83.39
26865;BME280;40618;51.166;10.322;2022-11-20T14:52:22;96692.59;;;-2.33;83.21